Time;durP1;ratioP1;P1;durP2;ratioP2;P2;SDS_P1;SDS_P2;PMS_P1;PMS_P2;Temp;Humidity;BMP_temperature;BMP_pressure;BME280_temperature;BME280_humidity;BME280_pressure;Samples;Min_cycle;Max_cycle;Signal;HPM_P1;HPM_P2
2022/04/20 00:01:44;;;;;;;7.80;4.45;;;9.40;78.70;;;;;;6035554;23;95485;-70
2022/04/20 00:04:11;;;;;;;5.55;4.60;;;9.40;78.80;;;;;;6037479;23;95366;-70
2022/04/20 00:06:39;;;;;;;6.97;4.20;;;9.30;78.80;;;;;;6037419;23;92335;-70
2022/04/20 00:09:06;;;;;;;5.65;4.90;;;9.30;79.30;;;;;;6037670;23;92457;-70
2022/04/20 00:11:33;;;;;;;5.50;4.53;;;9.30;79.50;;;;;;6035195;23;109560;-70
2022/04/20 00:14:00;;;;;;;5.50;3.92;;;9.30;79.30;;;;;;6035311;23;96554;-70
2022/04/20 00:16:27;;;;;;;6.00;5.13;;;9.20;79.30;;;;;;6035725;23;92434;-70
2022/04/20 00:18:54;;;;;;;5.57;4.20;;;9.20;80.00;;;;;;6037879;23;92187;-70
2022/04/20 00:21:26;;;;;;;6.57;4.57;;;9.20;79.80;;;;;;6036136;23;93057;-70
2022/04/20 00:23:54;;;;;;;5.85;4.65;;;9.10;80.30;;;;;;6035277;23;94682;-70
2022/04/20 00:26:21;;;;;;;5.25;4.57;;;9.10;80.30;;;;;;6036123;23;94848;-71
2022/04/20 00:28:48;;;;;;;7.25;4.93;;;9.10;80.20;;;;;;6035267;23;92511;-70
2022/04/20 00:31:16;;;;;;;5.70;4.45;;;9.00;80.50;;;;;;6011250;23;95802;-71
2022/04/20 00:33:43;;;;;;;5.63;4.80;;;9.00;80.70;;;;;;6035246;23;95332;-70
2022/04/20 00:36:10;;;;;;;6.40;4.40;;;9.00;80.60;;;;;;6035901;23;92830;-70
2022/04/20 00:38:37;;;;;;;6.28;4.72;;;9.00;80.90;;;;;;6012005;23;92578;-70
2022/04/20 00:41:06;;;;;;;6.00;4.32;;;9.00;81.20;;;;;;6036979;23;93146;-70
2022/04/20 00:43:33;;;;;;;5.40;4.75;;;8.90;81.10;;;;;;6036288;23;92611;-70
2022/04/20 00:46:00;;;;;;;7.47;4.95;;;8.90;81.10;;;;;;6037260;23;92299;-70
2022/04/20 00:48:28;;;;;;;5.97;4.32;;;8.90;81.60;;;;;;6037399;23;92521;-70
2022/04/20 00:50:56;;;;;;;7.28;4.95;;;8.90;82.20;;;;;;6033425;23;97791;-70
2022/04/20 00:53:24;;;;;;;7.95;4.78;;;8.80;81.50;;;;;;6035706;23;95376;-70
2022/04/20 00:55:53;;;;;;;6.55;4.38;;;8.80;81.60;;;;;;6035301;23;92443;-70
2022/04/20 00:58:21;;;;;;;4.78;4.30;;;8.80;82.10;;;;;;6035285;23;92469;-70
2022/04/20 01:00:48;;;;;;;5.50;4.53;;;8.80;81.90;;;;;;6035143;23;96235;-70
2022/04/20 01:03:15;;;;;;;6.85;4.68;;;8.70;82.00;;;;;;6011509;23;94957;-70
2022/04/20 01:06:15;;;;;;;8.38;4.78;;;8.70;82.30;;;;;;6019955;23;92609;-70
2022/04/20 01:09:03;;;;;;;5.85;4.78;;;8.70;82.50;;;;;;6035986;23;91682;-70
2022/04/20 01:11:51;;;;;;;6.55;4.82;;;8.60;83.40;;;;;;6035735;23;92649;-71
2022/04/20 01:14:32;;;;;;;5.32;4.38;;;8.60;82.90;;;;;;6035927;23;94906;-70
2022/04/20 01:17:28;;;;;;;6.55;4.55;;;8.50;83.10;;;;;;6033582;23;95093;-70
2022/04/20 01:20:18;;;;;;;9.05;4.55;;;8.50;83.40;;;;;;6029011;23;93547;-70
2022/04/20 01:22:59;;;;;;;8.65;4.80;;;8.50;83.50;;;;;;6014320;23;94473;-70
2022/04/20 01:25:45;;;;;;;6.63;4.65;;;8.50;83.60;;;;;;6037298;23;92787;-70
2022/04/20 01:28:41;;;;;;;5.70;4.38;;;8.40;83.70;;;;;;6039419;23;92455;-70
2022/04/20 01:31:21;;;;;;;7.75;5.50;;;8.40;83.80;;;;;;6040213;23;92787;-70
2022/04/20 01:34:04;;;;;;;5.05;4.22;;;8.40;83.90;;;;;;6040297;23;95632;-69
2022/04/20 01:36:31;;;;;;;6.97;5.05;;;8.40;83.90;;;;;;6016444;23;95740;-70
2022/04/20 01:38:58;;;;;;;5.32;4.82;;;8.30;84.10;;;;;;6040091;23;92422;-70
2022/04/20 01:41:25;;;;;;;8.05;5.20;;;8.40;84.30;;;;;;6016493;23;92503;-70
2022/04/20 01:43:53;;;;;;;8.00;5.47;;;8.40;84.10;;;;;;6037701;23;97466;-70
2022/04/20 01:46:28;;;;;;;6.65;4.97;;;8.30;84.10;;;;;;6017702;23;98013;-70
2022/04/20 01:49:09;;;;;;;6.97;5.38;;;8.30;84.10;;;;;;6040180;23;92456;-70
2022/04/20 01:51:55;;;;;;;6.50;4.78;;;8.30;84.60;;;;;;6066080;23;92343;-70
2022/04/20 01:54:40;;;;;;;6.40;4.50;;;8.20;84.60;;;;;;6044421;23;92670;-70
2022/04/20 01:57:40;;;;;;;6.95;4.70;;;8.20;84.80;;;;;;6030683;23;93749;-70
2022/04/20 02:00:32;;;;;;;6.05;4.35;;;8.20;85.10;;;;;;6029303;23;92483;-70
2022/04/20 02:03:19;;;;;;;8.18;4.97;;;8.10;85.30;;;;;;6044841;23;91789;-71
2022/04/20 02:05:51;;;;;;;7.35;4.72;;;8.10;85.20;;;;;;6040116;23;95516;-70
2022/04/20 02:08:26;;;;;;;6.45;4.47;;;8.10;85.30;;;;;;6039828;23;95091;-70
2022/04/20 02:11:11;;;;;;;5.35;4.25;;;8.10;85.40;;;;;;6064523;23;94923;-70
2022/04/20 02:13:39;;;;;;;6.10;4.50;;;8.10;85.50;;;;;;6040115;23;92432;-70
2022/04/20 02:16:06;;;;;;;6.07;4.35;;;8.10;85.70;;;;;;6039505;23;95983;-70
2022/04/20 02:18:33;;;;;;;7.40;5.70;;;8.10;85.90;;;;;;6065848;23;92861;-70
2022/04/20 02:21:28;;;;;;;6.72;4.88;;;8.10;86.00;;;;;;6040270;23;92437;-70
2022/04/20 02:23:55;;;;;;;7.38;5.20;;;8.00;86.30;;;;;;6039941;23;92478;-70
2022/04/20 02:26:22;;;;;;;5.70;4.45;;;8.00;86.00;;;;;;6039870;23;95876;-70
2022/04/20 02:28:49;;;;;;;6.55;4.93;;;8.00;86.10;;;;;;6039869;23;95765;-70
2022/04/20 02:31:16;;;;;;;7.28;4.72;;;8.00;86.50;;;;;;6039701;23;92482;-70
2022/04/20 02:33:44;;;;;;;9.75;5.30;;;8.00;86.50;;;;;;6039834;23;92438;-70
2022/04/20 02:36:11;;;;;;;6.65;5.15;;;8.00;86.70;;;;;;6062157;23;97778;-70
2022/04/20 02:38:39;;;;;;;6.22;4.60;;;7.90;87.00;;;;;;6065419;23;95367;-70
2022/04/20 02:41:07;;;;;;;6.47;4.72;;;7.90;86.80;;;;;;6039465;23;92407;-70
2022/04/20 02:43:58;;;;;;;5.95;5.35;;;7.90;86.90;;;;;;6039918;23;92907;-70
2022/04/20 02:46:27;;;;;;;7.03;5.10;;;7.90;87.70;;;;;;6065436;23;94847;-69
2022/04/20 02:48:54;;;;;;;6.57;4.88;;;7.80;87.50;;;;;;6065605;23;92394;-70
2022/04/20 02:51:21;;;;;;;7.22;4.70;;;7.80;87.80;;;;;;6039581;23;92796;-70
2022/04/20 02:53:48;;;;;;;6.68;4.65;;;7.80;87.50;;;;;;6040097;23;91747;-70
2022/04/20 02:56:16;;;;;;;6.90;4.95;;;7.80;87.50;;;;;;6040420;23;95470;-70
2022/04/20 02:58:45;;;;;;;7.55;5.10;;;7.70;87.90;;;;;;6040463;23;94857;-70
2022/04/20 03:01:13;;;;;;;7.63;4.75;;;7.70;88.00;;;;;;6065620;23;94798;-70
2022/04/20 03:03:42;;;;;;;5.55;4.70;;;7.70;88.20;;;;;;6065109;23;92444;-70
2022/04/20 03:06:28;;;;;;;6.43;5.30;;;7.60;88.30;;;;;;6019930;23;96257;-70
2022/04/20 03:09:00;;;;;;;7.18;5.28;;;7.60;88.40;;;;;;6040588;23;94903;-70
2022/04/20 03:11:28;;;;;;;6.10;4.47;;;7.60;88.80;;;;;;6040834;23;92379;-70
2022/04/20 03:13:56;;;;;;;8.25;4.95;;;7.50;89.10;;;;;;6040668;23;92526;-70
2022/04/20 03:16:26;;;;;;;6.65;5.38;;;7.50;89.00;;;;;;6016554;23;95375;-70
2022/04/20 03:18:55;;;;;;;5.20;4.43;;;7.50;89.00;;;;;;6041342;23;95174;-70
2022/04/20 03:21:27;;;;;;;5.50;4.60;;;7.50;89.20;;;;;;6040633;23;92408;-70
2022/04/20 03:23:58;;;;;;;6.43;5.10;;;7.40;89.10;;;;;;6018311;23;92426;-70
2022/04/20 03:26:45;;;;;;;6.57;4.82;;;7.40;89.30;;;;;;6065285;23;94783;-70
2022/04/20 03:29:23;;;;;;;6.30;4.72;;;7.40;89.40;;;;;;6040113;23;97559;-70
2022/04/20 03:31:50;;;;;;;7.07;4.47;;;7.40;89.80;;;;;;6065163;23;92422;-70
2022/04/20 03:34:17;;;;;;;6.03;4.60;;;7.30;90.00;;;;;;6040579;23;92469;-70
2022/04/20 03:36:47;;;;;;;6.13;4.80;;;7.30;89.90;;;;;;6040521;23;95396;-70
2022/04/20 03:39:14;;;;;;;8.90;5.03;;;7.30;90.10;;;;;;6040654;23;97991;-70
2022/04/20 03:41:43;;;;;;;7.70;5.10;;;7.30;90.30;;;;;;6017084;23;92494;-70
2022/04/20 03:44:10;;;;;;;5.53;4.85;;;7.20;90.30;;;;;;6040897;23;91758;-70
2022/04/20 03:46:37;;;;;;;5.40;4.65;;;7.20;90.50;;;;;;6041076;23;93218;-70
2022/04/20 03:49:04;;;;;;;9.32;4.70;;;7.20;90.60;;;;;;6040543;23;95094;-70
2022/04/20 03:51:32;;;;;;;5.28;4.53;;;7.20;90.50;;;;;;6065359;23;94733;-70
2022/04/20 03:54:00;;;;;;;8.85;4.50;;;7.20;90.50;;;;;;6040540;23;92492;-70
2022/04/20 03:57:03;;;;;;;5.95;4.32;;;7.20;90.70;;;;;;6040046;23;95001;-70
2022/04/20 03:59:18;;;;;;;6.40;4.78;;;7.10;91.00;;;;;;6066061;23;92913;-70
2022/04/20 04:01:46;;;;;;;5.85;4.85;;;7.10;91.10;;;;;;6017136;23;92463;-70
2022/04/20 04:04:13;;;;;;;7.00;4.70;;;7.10;91.40;;;;;;6040553;23;92417;-69
2022/04/20 04:06:42;;;;;;;8.18;4.97;;;7.00;91.40;;;;;;6040075;23;95521;-70
2022/04/20 04:09:10;;;;;;;6.72;5.22;;;7.00;91.50;;;;;;6040375;23;95191;-70
2022/04/20 04:11:37;;;;;;;6.47;4.93;;;7.00;91.50;;;;;;6040607;23;92423;-70
2022/04/20 04:14:05;;;;;;;6.93;5.18;;;7.00;91.60;;;;;;6016576;23;92506;-70
2022/04/20 04:16:39;;;;;;;6.32;5.20;;;7.00;91.40;;;;;;6038470;23;97545;-70
2022/04/20 04:19:08;;;;;;;6.30;4.82;;;6.90;91.80;;;;;;6040468;23;97929;-69
2022/04/20 04:21:37;;;;;;;5.57;4.45;;;6.90;91.60;;;;;;6066893;23;92747;-70
2022/04/20 04:24:06;;;;;;;5.97;5.00;;;6.90;91.80;;;;;;6040844;23;92889;-70
2022/04/20 04:26:37;;;;;;;5.45;4.25;;;6.80;91.90;;;;;;6017576;23;95953;-70
2022/04/20 04:29:05;;;;;;;8.00;4.95;;;6.80;92.00;;;;;;6039893;23;94796;-70
2022/04/20 04:31:33;;;;;;;6.90;4.45;;;6.80;92.00;;;;;;6040365;23;92423;-70
2022/04/20 04:34:01;;;;;;;5.68;4.80;;;6.80;92.10;;;;;;6040868;23;91790;-71
2022/04/20 04:36:28;;;;;;;8.45;4.93;;;6.70;92.00;;;;;;6016001;23;96018;-70
2022/04/20 04:38:58;;;;;;;5.63;5.13;;;6.80;92.00;;;;;;6039986;23;94196;-70
2022/04/20 04:41:28;;;;;;;8.20;4.60;;;6.80;92.10;;;;;;6039043;23;94872;-70
2022/04/20 04:43:58;;;;;;;6.03;4.55;;;6.80;92.10;;;;;;6040352;23;92512;-70
2022/04/20 04:49:16;;;;;;;6.22;5.45;;;6.70;92.20;;;;;;6040291;23;95420;-69
2022/04/20 04:51:43;;;;;;;6.57;4.80;;;6.80;92.30;;;;;;6040534;23;93038;-70
2022/04/20 04:54:15;;;;;;;5.13;4.43;;;6.80;92.20;;;;;;6040613;23;92530;-70
2022/04/20 04:56:42;;;;;;;8.00;5.30;;;6.80;92.10;;;;;;6040241;23;95688;-70
2022/04/20 04:59:10;;;;;;;5.18;4.60;;;6.80;92.20;;;;;;6040469;23;95360;-70
2022/04/20 05:01:38;;;;;;;7.13;4.45;;;6.90;92.10;;;;;;6040011;23;92462;-70
2022/04/20 05:04:13;;;;;;;5.30;4.30;;;7.00;92.20;;;;;;6040508;23;92530;-70
2022/04/20 05:06:42;;;;;;;6.28;5.00;;;7.10;92.00;;;;;;6038423;23;98197;-70
2022/04/20 05:09:27;;;;;;;6.28;4.80;;;7.20;91.80;;;;;;6066016;23;94822;-69
2022/04/20 05:11:54;;;;;;;8.45;5.72;;;7.30;91.40;;;;;;6040574;23;92501;-69
2022/04/20 05:14:22;;;;;;;4.80;4.25;;;7.30;91.30;;;;;;6040050;23;92596;-69
2022/04/20 05:16:55;;;;;;;5.80;4.75;;;7.30;91.30;;;;;;6016673;23;95333;-70
2022/04/20 05:19:24;;;;;;;11.73;4.78;;;7.30;91.30;;;;;;6039993;23;95306;-70
2022/04/20 05:21:53;;;;;;;4.70;4.20;;;7.50;91.30;;;;;;6040399;23;92815;-70
2022/04/20 05:24:27;;;;;;;6.13;4.65;;;7.80;91.30;;;;;;6040367;23;91903;-70
2022/04/20 05:26:55;;;;;;;4.40;4.00;;;8.20;90.70;;;;;;6039880;23;95558;-70
2022/04/20 05:29:24;;;;;;;5.15;4.63;;;8.70;89.70;;;;;;6063671;23;93827;-71
2022/04/20 05:32:02;;;;;;;5.25;4.30;;;9.50;87.90;;;;;;6038902;23;94899;-70
2022/04/20 05:34:33;;;;;;;5.07;4.32;;;10.20;85.10;;;;;;6040109;23;92517;-71
2022/04/20 05:42:37;;;;;;;5.90;4.20;;;11.90;77.20;;;;;;6040195;23;92463;-71
2022/04/20 05:45:04;;;;;;;5.35;4.22;;;12.20;75.10;;;;;;6040241;23;92483;-70
2022/04/20 05:47:33;;;;;;;5.03;4.20;;;12.20;75.30;;;;;;6039447;23;95038;-70
2022/04/20 05:50:00;;;;;;;7.68;4.95;;;12.40;74.50;;;;;;6040128;23;95227;-70
2022/04/20 05:52:28;;;;;;;6.07;4.57;;;12.60;73.10;;;;;;6040136;23;92909;-70
2022/04/20 05:54:57;;;;;;;8.10;4.38;;;12.50;72.70;;;;;;6016340;23;92350;-70
2022/04/20 05:57:24;;;;;;;6.80;4.47;;;12.20;73.50;;;;;;6037939;23;97978;-70
2022/04/20 05:59:51;;;;;;;6.78;4.80;;;12.10;74.00;;;;;;6039684;23;97634;-70
2022/04/20 06:02:18;;;;;;;7.88;4.78;;;12.30;73.50;;;;;;6064471;23;92341;-71
2022/04/20 06:04:45;;;;;;;7.10;4.50;;;12.40;73.80;;;;;;6039750;23;92569;-70
2022/04/20 06:07:29;;;;;;;8.02;4.75;;;12.80;72.90;;;;;;6018918;23;95564;-70
2022/04/20 06:10:24;;;;;;;8.30;5.07;;;13.30;70.70;;;;;;6039935;23;94773;-70
2022/04/20 06:12:55;;;;;;;5.95;4.95;;;13.50;70.30;;;;;;6017163;23;92497;-70
2022/04/20 06:15:42;;;;;;;7.38;4.63;;;13.50;69.80;;;;;;6040239;23;91712;-70
2022/04/20 06:18:15;;;;;;;7.47;5.00;;;13.40;69.50;;;;;;6065734;23;92954;-70
2022/04/20 06:20:56;;;;;;;5.10;4.70;;;13.20;70.30;;;;;;6039647;23;93969;-70
2022/04/20 06:23:38;;;;;;;5.25;4.75;;;13.40;69.40;;;;;;6042152;23;94788;-70
2022/04/20 06:26:23;;;;;;;5.65;4.80;;;13.70;68.70;;;;;;6040148;23;92810;-70
2022/04/20 06:29:09;;;;;;;4.97;4.57;;;13.80;68.50;;;;;;6039978;23;95297;-70
2022/04/20 06:31:51;;;;;;;5.38;4.40;;;13.70;68.30;;;;;;6040783;23;95698;-70
2022/04/20 06:34:26;;;;;;;6.15;4.82;;;13.80;68.50;;;;;;6041214;23;92520;-70
2022/04/20 06:37:15;;;;;;;6.45;4.80;;;13.80;67.70;;;;;;6067259;23;92471;-71
2022/04/20 06:39:50;;;;;;;5.60;5.10;;;14.10;68.00;;;;;;6040522;23;95658;-71
2022/04/20 06:42:36;;;;;;;6.55;5.28;;;14.10;67.00;;;;;;6045471;23;92401;-71
2022/04/20 06:45:22;;;;;;;6.13;5.07;;;14.10;66.10;;;;;;6045451;23;92428;-71
2022/04/20 06:48:27;;;;;;;7.07;5.35;;;13.70;66.70;;;;;;6006330;23;92554;-71
2022/04/20 06:58:31;;;;;;;6.03;5.03;;;13.30;67.00;;;;;;5919784;23;95402;-71
2022/04/20 07:00:11;;;;;;;6.47;5.20;;;12.90;68.60;;;;;;6041004;23;92501;-71
2022/04/20 07:03:01;;;;;;;7.68;4.85;;;12.90;69.80;;;;;;6040605;23;95559;-71
2022/04/20 07:06:01;;;;;;;6.03;4.95;;;13.00;69.10;;;;;;6056930;23;92900;-71
2022/04/20 07:08:37;;;;;;;7.70;5.72;;;13.10;68.40;;;;;;6018570;23;92478;-71
2022/04/20 07:11:17;;;;;;;6.57;5.75;;;13.50;67.50;;;;;;6041711;23;91659;-71
2022/04/20 07:13:47;;;;;;;6.53;5.10;;;13.90;65.70;;;;;;6016919;23;94495;-71
2022/04/20 07:16:15;;;;;;;6.07;5.47;;;14.40;65.30;;;;;;6016802;23;95361;-71
2022/04/20 07:18:50;;;;;;;5.55;4.97;;;14.80;63.90;;;;;;6039012;23;94774;-71
2022/04/20 07:21:32;;;;;;;5.65;4.22;;;15.20;63.10;;;;;;6067049;23;92424;-71
2022/04/20 07:24:11;;;;;;;6.13;4.68;;;15.60;61.40;;;;;;6040980;23;95716;-71
2022/04/20 07:26:58;;;;;;;7.78;6.15;;;15.60;60.20;;;;;;6055643;23;92703;-71
2022/04/20 07:29:41;;;;;;;5.45;4.75;;;15.70;59.70;;;;;;6040521;23;92463;-70
2022/04/20 07:32:20;;;;;;;6.05;5.03;;;15.90;58.60;;;;;;6019463;23;92495;-71
2022/04/20 07:35:02;;;;;;;5.53;4.32;;;16.10;58.10;;;;;;6023024;23;92884;-70
2022/04/20 07:37:55;;;;;;;5.75;5.25;;;16.30;56.30;;;;;;6046909;23;92731;-69
2022/04/20 07:40:40;;;;;;;4.90;4.50;;;16.30;55.10;;;;;;6044908;23;92887;-69
2022/04/20 07:43:28;;;;;;;5.18;4.45;;;16.40;55.00;;;;;;6035785;23;92523;-69
2022/04/20 07:46:05;;;;;;;6.28;5.10;;;16.20;54.70;;;;;;6039026;23;97694;-69
2022/04/20 07:48:51;;;;;;;5.28;4.88;;;16.00;55.00;;;;;;6066346;23;94595;-69
2022/04/20 07:51:44;;;;;;;5.35;4.90;;;15.90;55.10;;;;;;6042491;23;92892;-69
2022/04/20 07:54:50;;;;;;;;;;;16.30;53.60;;;;;;6066472;23;92694;-69
2022/04/20 07:57:29;;;;;;;7.03;6.53;;;16.40;52.10;;;;;;6041617;23;94931;-69
2022/04/20 08:00:22;;;;;;;8.27;7.75;;;17.10;51.10;;;;;;6018466;23;92693;-69
2022/04/20 08:03:16;;;;;;;8.20;7.70;;;18.00;49.20;;;;;;6066564;23;92418;-69
2022/04/20 08:05:49;;;;;;;7.25;6.88;;;19.00;45.00;;;;;;6016777;23;91627;-69
2022/04/20 08:08:17;;;;;;;6.13;5.72;;;19.50;43.30;;;;;;6040580;23;95918;-69
2022/04/20 08:14:11;;;;;;;5.63;5.32;;;20.80;40.80;;;;;;5989713;23;94762;-70
2022/04/20 08:17:00;;;;;;;7.07;6.68;;;21.50;38.90;;;;;;6035772;23;92586;-70
2022/04/20 08:19:27;;;;;;;7.85;7.30;;;21.60;37.30;;;;;;6066319;23;92940;-70
2022/04/20 08:22:07;;;;;;;9.02;8.48;;;22.00;35.50;;;;;;6019179;23;95048;-70
2022/04/20 08:24:34;;;;;;;7.10;6.80;;;22.20;35.20;;;;;;6066653;23;92299;-70
2022/04/20 08:27:02;;;;;;;8.18;7.45;;;22.50;34.50;;;;;;6040356;23;93021;-70
2022/04/20 08:29:29;;;;;;;7.90;7.22;;;22.70;33.80;;;;;;6040729;23;92953;-70
2022/04/20 08:31:56;;;;;;;9.10;8.57;;;22.70;33.50;;;;;;6066838;23;92911;-70
2022/04/20 08:34:23;;;;;;;6.68;6.38;;;22.80;32.50;;;;;;6066715;23;92697;-70
2022/04/20 08:36:50;;;;;;;13.95;13.02;;;23.00;31.60;;;;;;6016281;23;92448;-70
2022/04/20 08:39:17;;;;;;;9.80;9.38;;;22.80;31.80;;;;;;6064039;23;95575;-70
2022/04/20 08:41:51;;;;;;;9.00;8.40;;;22.40;31.50;;;;;;6065854;23;95267;-70
2022/04/20 08:44:26;;;;;;;19.08;18.02;;;22.20;31.70;;;;;;6066606;23;92448;-70
2022/04/20 08:46:59;;;;;;;3.08;2.80;;;22.10;32.30;;;;;;6016458;23;92384;-70
2022/04/20 08:49:26;;;;;;;2.93;2.70;;;21.80;33.30;;;;;;6040465;23;95786;-70
2022/04/20 08:54:44;;;;;;;3.78;2.97;;;21.00;32.40;;;;;;6040719;23;92388;-70
2022/04/20 08:57:20;;;;;;;5.38;2.97;;;20.20;32.50;;;;;;6066909;23;91709;-69
2022/04/20 08:59:49;;;;;;;3.30;2.45;;;19.70;34.20;;;;;;6039766;23;98608;-70
2022/04/20 09:02:17;;;;;;;3.33;2.47;;;19.00;34.50;;;;;;6066408;23;93163;-70
2022/04/20 09:04:44;;;;;;;3.42;2.50;;;18.30;34.50;;;;;;6039720;23;94906;-69
2022/04/20 09:07:14;;;;;;;3.40;2.40;;;18.00;35.60;;;;;;6040898;23;92487;-69
2022/04/20 09:09:42;;;;;;;3.75;3.03;;;17.50;36.80;;;;;;6040091;23;95704;-70
2022/04/20 09:12:17;;;;;;;2.97;2.08;;;17.20;37.80;;;;;;6065935;23;92936;-69
2022/04/20 09:14:48;;;;;;;3.42;2.38;;;16.80;38.20;;;;;;6066537;23;92305;-70
2022/04/20 09:17:17;;;;;;;2.33;2.13;;;16.50;38.90;;;;;;6040564;23;92416;-70
2022/04/20 09:19:46;;;;;;;2.92;2.50;;;16.20;40.90;;;;;;6015978;23;95837;-70
2022/04/20 09:22:23;;;;;;;3.90;2.55;;;16.10;41.30;;;;;;6066689;23;92034;-70
2022/04/20 09:25:06;;;;;;;3.88;2.97;;;16.00;41.00;;;;;;6066467;23;92374;-70
2022/04/20 09:27:39;;;;;;;2.38;2.17;;;15.90;40.70;;;;;;6064689;23;92493;-70
2022/04/20 09:30:11;;;;;;;3.45;2.30;;;15.80;41.10;;;;;;6064163;23;95620;-70
2022/04/20 09:32:40;;;;;;;5.13;2.25;;;15.80;41.40;;;;;;6066090;23;95318;-70
2022/04/20 09:35:18;;;;;;;3.08;1.90;;;15.70;42.50;;;;;;6016769;23;92534;-70
2022/04/20 09:38:01;;;;;;;2.50;2.10;;;15.60;42.80;;;;;;6066347;23;92400;-70
2022/04/20 09:40:49;;;;;;;1.95;1.80;;;15.60;42.00;;;;;;6066064;23;92456;-70
2022/04/20 09:43:19;;;;;;;3.13;2.00;;;15.60;41.10;;;;;;6040442;23;92518;-70
2022/04/20 09:46:03;;;;;;;2.85;2.00;;;15.50;42.00;;;;;;6040027;23;92511;-70
2022/04/20 09:51:20;;;;;;;3.90;2.17;;;15.50;43.00;;;;;;6066227;23;93382;-69
2022/04/20 09:53:53;;;;;;;2.28;2.08;;;15.60;43.30;;;;;;6066179;23;93093;-69
2022/04/20 09:56:23;;;;;;;3.17;2.00;;;15.60;42.50;;;;;;6039261;23;94841;-69
2022/04/20 09:59:02;;;;;;;3.13;2.00;;;15.80;43.50;;;;;;6040455;23;92420;-69
2022/04/20 10:01:36;;;;;;;2.20;2.00;;;15.90;44.00;;;;;;6040032;23;94732;-69
2022/04/20 10:04:05;;;;;;;3.17;2.22;;;15.90;42.90;;;;;;6015199;23;95755;-69
2022/04/20 10:06:33;;;;;;;2.35;2.15;;;15.90;44.00;;;;;;6065992;23;92387;-69
2022/04/20 10:09:01;;;;;;;2.42;2.15;;;15.90;44.40;;;;;;6063897;23;92560;-69
2022/04/20 10:11:28;;;;;;;2.30;2.10;;;15.90;43.70;;;;;;6015950;23;95699;-69
2022/04/20 10:16:50;;;;;;;3.88;2.00;;;16.00;43.90;;;;;;6066165;23;92442;-69
2022/04/20 10:19:28;;;;;;;4.45;2.55;;;16.00;44.70;;;;;;6015845;23;92385;-69
2022/04/20 10:21:57;;;;;;;3.65;1.90;;;16.10;44.20;;;;;;6013762;23;98245;-69
2022/04/20 10:24:35;;;;;;;3.22;2.33;;;16.10;44.60;;;;;;6039445;23;97869;-69
2022/04/20 10:27:09;;;;;;;5.22;2.10;;;16.20;43.80;;;;;;6039826;23;92384;-69
2022/04/20 10:29:49;;;;;;;2.00;1.75;;;16.20;43.20;;;;;;6039715;23;92376;-69
2022/04/20 10:32:23;;;;;;;2.63;1.60;;;16.20;41.70;;;;;;6065454;23;93014;-69
2022/04/20 10:34:59;;;;;;;2.40;2.20;;;16.20;41.30;;;;;;6039091;23;93988;-69
2022/04/20 10:38:10;;;;;;;3.20;2.10;;;16.20;41.50;;;;;;6039608;23;92455;-69
2022/04/20 10:41:08;;;;;;;3.88;2.00;;;16.20;40.30;;;;;;6017935;23;92764;-70
2022/04/20 10:43:43;;;;;;;3.85;2.20;;;16.30;41.20;;;;;;6039661;23;95495;-70
2022/04/20 10:46:16;;;;;;;3.42;1.80;;;16.40;41.10;;;;;;6039345;23;93921;-70
2022/04/20 10:49:16;;;;;;;2.63;2.42;;;16.40;39.40;;;;;;6064267;23;94827;-70
2022/04/20 10:51:45;;;;;;;2.22;1.90;;;16.50;40.50;;;;;;6039570;23;92544;-70
2022/04/20 10:54:20;;;;;;;2.17;1.95;;;16.50;39.50;;;;;;6065160;23;93128;-70
2022/04/20 10:57:00;;;;;;;2.58;1.70;;;16.70;39.70;;;;;;6039275;23;94845;-70
2022/04/20 10:59:28;;;;;;;2.92;1.90;;;16.80;41.20;;;;;;6065596;23;92788;-70
2022/04/20 11:01:58;;;;;;;2.85;1.60;;;16.80;38.50;;;;;;6015683;23;92479;-70
2022/04/20 11:04:46;;;;;;;3.33;2.08;;;16.80;37.70;;;;;;6065350;23;92397;-70
2022/04/20 11:07:35;;;;;;;2.50;2.25;;;17.00;39.30;;;;;;6065673;23;91605;-70
2022/04/20 11:10:05;;;;;;;1.50;1.40;;;16.90;37.10;;;;;;6065446;23;92381;-70
2022/04/20 11:18:38;;;;;;;2.00;1.73;;;16.90;35.00;;;;;;6040379;23;97947;-70
2022/04/20 11:21:23;;;;;;;2.00;1.90;;;17.00;35.20;;;;;;6066680;23;92309;-70
2022/04/20 11:23:53;;;;;;;2.80;1.65;;;17.00;36.30;;;;;;6041469;23;92787;-70
2022/04/20 11:26:28;;;;;;;1.63;1.45;;;17.10;36.10;;;;;;6040170;23;104922;-70
2022/04/20 11:28:57;;;;;;;2.42;1.60;;;17.10;35.30;;;;;;6040652;23;94045;-70
2022/04/20 11:31:24;;;;;;;2.35;2.25;;;17.10;34.80;;;;;;6066438;23;92325;-70
2022/04/20 11:33:53;;;;;;;3.30;1.70;;;17.10;34.20;;;;;;6067243;23;91737;-70
2022/04/20 11:36:21;;;;;;;3.10;1.70;;;17.20;34.70;;;;;;6040070;23;94931;-70
2022/04/20 11:38:49;;;;;;;2.20;1.50;;;17.20;34.50;;;;;;6066694;23;92876;-70
2022/04/20 11:41:16;;;;;;;2.50;1.70;;;17.20;35.30;;;;;;6065132;23;95161;-70
2022/04/20 11:43:44;;;;;;;3.28;1.80;;;17.20;35.00;;;;;;6040567;23;92446;-70
2022/04/20 11:46:14;;;;;;;2.65;1.92;;;17.30;35.20;;;;;;6017176;23;95516;-70
2022/04/20 11:48:53;;;;;;;2.28;2.08;;;17.40;36.20;;;;;;6066677;23;92839;-70
2022/04/20 11:51:27;;;;;;;3.58;1.73;;;17.50;35.30;;;;;;6016579;23;92587;-70
2022/04/20 11:53:55;;;;;;;1.73;1.60;;;17.50;35.90;;;;;;6066670;23;92493;-70
2022/04/20 11:56:35;;;;;;;2.53;2.33;;;17.40;35.70;;;;;;6040687;23;95532;-70
2022/04/20 11:59:05;;;;;;;3.30;2.90;;;17.40;35.80;;;;;;6041276;23;91921;-70
2022/04/20 12:01:38;;;;;;;2.83;1.60;;;17.40;36.80;;;;;;6066750;23;92394;-70
2022/04/20 12:04:16;;;;;;;3.47;2.17;;;17.50;36.70;;;;;;6041253;23;92443;-70
2022/04/20 12:06:49;;;;;;;1.85;1.55;;;17.60;36.40;;;;;;6039000;23;98167;-70
2022/04/20 12:09:20;;;;;;;2.33;2.13;;;17.60;37.60;;;;;;6066139;23;95084;-70
2022/04/20 12:11:51;;;;;;;2.75;2.55;;;17.70;36.30;;;;;;6066831;23;92440;-70
2022/04/20 12:14:19;;;;;;;6.93;2.15;;;17.70;36.30;;;;;;6066393;23;92299;-70
2022/04/20 12:16:47;;;;;;;1.70;1.60;;;17.80;36.40;;;;;;6066541;23;93111;-71
2022/04/20 12:19:22;;;;;;;2.47;2.38;;;17.70;35.70;;;;;;6040277;23;95290;-70
2022/04/20 12:21:49;;;;;;;5.82;2.30;;;17.70;37.20;;;;;;6017420;23;92717;-70
2022/04/20 12:24:25;;;;;;;2.10;1.95;;;17.70;38.50;;;;;;6040729;23;91571;-70
2022/04/20 12:26:56;;;;;;;2.78;2.42;;;17.80;37.80;;;;;;6040257;23;95697;-70
2022/04/20 12:29:30;;;;;;;2.50;2.30;;;17.80;38.30;;;;;;6065729;23;92999;-70
2022/04/20 12:31:58;;;;;;;4.43;2.33;;;17.90;39.00;;;;;;6063790;23;94805;-70
2022/04/20 12:34:30;;;;;;;2.42;1.80;;;17.90;39.40;;;;;;6066358;23;92466;-70
2022/04/20 12:37:13;;;;;;;4.80;2.78;;;18.00;38.90;;;;;;6040432;23;95437;-70
2022/04/20 12:39:45;;;;;;;3.70;3.25;;;18.10;38.90;;;;;;6066373;23;92919;-70
2022/04/20 12:42:18;;;;;;;3.17;2.97;;;18.10;39.10;;;;;;6040692;23;92492;-71
2022/04/20 12:44:53;;;;;;;4.28;2.38;;;18.20;39.20;;;;;;6040815;23;93255;-71
2022/04/20 12:47:21;;;;;;;2.75;2.55;;;18.10;39.10;;;;;;6066045;23;93271;-70
2022/04/20 12:50:10;;;;;;;2.15;2.05;;;18.10;39.70;;;;;;6066681;23;92909;-70
2022/04/20 12:52:47;;;;;;;2.63;2.40;;;18.20;38.60;;;;;;6040954;23;92497;-70
2022/04/20 12:55:15;;;;;;;3.17;2.85;;;18.10;39.30;;;;;;6040653;23;92451;-70
2022/04/20 13:03:35;;;;;;;3.13;2.83;;;18.10;40.00;;;;;;6044892;23;92390;-70
2022/04/20 13:06:13;;;;;;;3.00;2.70;;;18.20;40.10;;;;;;6040587;23;92516;-70
2022/04/20 13:08:45;;;;;;;3.45;2.90;;;18.10;41.10;;;;;;6016308;23;95216;-71
2022/04/20 13:11:14;;;;;;;3.65;2.90;;;18.20;42.10;;;;;;6066450;23;92841;-71
2022/04/20 13:14:01;;;;;;;3.05;2.85;;;18.30;41.00;;;;;;6040574;23;92434;-71
2022/04/20 13:16:28;;;;;;;4.07;2.70;;;18.20;41.50;;;;;;6066551;23;91663;-71
2022/04/20 13:18:55;;;;;;;3.45;2.80;;;18.20;40.80;;;;;;6016273;23;106721;-71
2022/04/20 13:21:24;;;;;;;2.95;2.75;;;18.20;40.70;;;;;;6040330;23;92454;-71
2022/04/20 13:23:52;;;;;;;3.42;3.10;;;18.20;40.70;;;;;;6065009;23;94781;-71
2022/04/20 13:29:05;;;;;;;3.85;3.58;;;18.30;40.40;;;;;;6044360;23;93183;-71
2022/04/20 13:31:38;;;;;;;4.50;3.65;;;18.30;40.60;;;;;;6065698;23;92782;-71
2022/04/20 13:34:05;;;;;;;3.42;3.13;;;18.30;41.00;;;;;;6066548;23;92734;-70
2022/04/20 13:36:32;;;;;;;3.80;3.08;;;18.30;41.20;;;;;;6066024;23;92432;-70
2022/04/20 13:38:59;;;;;;;3.30;3.00;;;18.40;42.90;;;;;;6040215;23;93503;-70
2022/04/20 13:41:26;;;;;;;3.95;3.50;;;18.40;43.50;;;;;;6040482;23;92948;-70
2022/04/20 13:43:53;;;;;;;3.10;2.80;;;18.30;43.70;;;;;;6066371;23;92300;-70
2022/04/20 13:46:20;;;;;;;3.80;3.42;;;18.30;44.70;;;;;;6066030;23;92373;-70
2022/04/20 13:48:47;;;;;;;4.13;3.72;;;18.30;43.80;;;;;;6039023;23;95544;-70
2022/04/20 13:51:14;;;;;;;3.58;3.28;;;18.20;44.00;;;;;;6065967;23;95316;-70
2022/04/20 13:53:41;;;;;;;4.35;3.47;;;18.30;43.10;;;;;;6064332;23;92949;-70
2022/04/20 13:56:11;;;;;;;3.17;2.90;;;18.20;42.70;;;;;;6066166;23;92367;-70
2022/04/20 13:58:38;;;;;;;4.43;3.20;;;18.20;42.90;;;;;;6016034;23;93448;-70
2022/04/20 14:01:05;;;;;;;4.68;4.38;;;18.30;43.40;;;;;;6065293;23;102910;-70
2022/04/20 14:03:38;;;;;;;3.55;3.25;;;18.30;43.20;;;;;;6041703;23;92534;-71
2022/04/20 14:06:05;;;;;;;4.53;3.80;;;18.30;44.20;;;;;;6040733;23;91798;-71